Flight Track Log - Related Links

Times and Time Zones

All times are in EDT time to prevent confusion due to time zone crossing. See the SWA3764 flight status page for this flight to view local times or setup timezone preferences in your user account.

Time Position Orientation Groundspeed Altitude Reporting Facility
EDT Latitude Longitude Course Direction KTS MPH feet Rate Location/Type
Mon 09:18:53 AM 36.0333 -86.6833 180° South 240 276 3,800  Level Nashville TRACON
Mon 09:19:35 AM 35.9833 -86.6833 180° South 270 311 6,600 3,622 Climbing Nashville TRACON
Mon 09:20:44 AM 35.9003 -86.7028 191° South 283 326 10,500 3,209 Climbing Memphis Center
Mon 09:21:44 AM 35.8092 -86.7197 189° South 303 349 13,500 2,950 Climbing Memphis Center
Mon 09:22:44 AM 35.7136 -86.7367 188° South 334 384 16,400 2,650 Climbing Memphis Center
Mon 09:23:44 AM 35.6247 -86.7583 191° South 365 420 18,800 2,393 Climbing Memphis Center
Mon 09:25:32 AM 35.4414 -86.7842 187° South 410 472 23,100 2,536 Climbing Atlanta Center
Mon 09:26:32 AM 35.3161 -86.7903 182° South 415 478 25,900 2,550 Climbing Atlanta Center
Mon 09:27:32 AM 35.1975 -86.7811 176° South 420 483 28,200 2,050 Climbing Atlanta Center
Mon 09:28:32 AM 35.0747 -86.7594 172° South 433 498 30,000 1,700 Climbing Atlanta Center
Mon 09:29:32 AM 34.9458 -86.7400 173° South 451 519 31,600 1,900 Climbing Atlanta Center
Mon 09:30:32 AM 34.8192 -86.7181 172° South 464 534 33,800 1,900 Climbing Atlanta Center
Mon 09:31:32 AM 34.6944 -86.6939 171° South 464 534 35,400 1,600 Climbing Atlanta Center
Mon 09:32:32 AM 34.5675 -86.6772 174° South 459 528 37,000 1,800 Climbing Atlanta Center
Mon 09:33:32 AM 34.4425 -86.6583 173° South 464 534 39,000 1,500 Climbing Atlanta Center
Mon 09:34:32 AM 34.3219 -86.6369 172° South 454 522 40,000 500 Climbing Atlanta Center
Mon 09:35:32 AM 34.2033 -86.6208 174° South 443 510 40,000  Level Atlanta Center
Mon 09:36:32 AM 34.0828 -86.5997 172° South 443 510 40,000  Level Atlanta Center
Mon 09:37:32 AM 33.9622 -86.5833 174° South 443 510 40,000  Level Atlanta Center
Mon 09:38:32 AM 33.8436 -86.5625 172° South 443 510 40,000  Level Atlanta Center
Mon 09:39:32 AM 33.7125 -86.5436 173° South 443 510 40,000  Level Atlanta Center
Mon 09:40:32 AM 33.5936 -86.5303 175° South 438 504 40,000  Level Atlanta Center
Mon 09:41:32 AM 33.4753 -86.5094 172° South 438 504 40,000 -500 Level Atlanta Center
Mon 09:42:32 AM 33.3567 -86.4911 173° South 438 504 39,000 -950 Descending Atlanta Center
Mon 09:43:32 AM 33.2506 -86.4731 172° South 438 504 38,100 -900 Descending Atlanta Center
Mon 09:44:32 AM 33.1211 -86.4669 178° South 449 517 37,200 -1,400 Descending Atlanta Center
Mon 09:45:32 AM 32.9986 -86.4339 167° South 454 522 35,300 -1,100 Descending Atlanta Center
Mon 09:46:32 AM 32.8781 -86.4183 174° South 454 522 35,000 -150 Descending Atlanta Center
Mon 09:47:32 AM 32.7572 -86.4003 173° South 443 510 35,000 -200 Level Atlanta Center
Mon 09:48:32 AM 32.6386 -86.3822 173° South 443 510 34,600 -700 Descending Atlanta Center
Mon 09:49:32 AM 32.5136 -86.3642 173° South 443 510 33,600 -1,000 Descending Atlanta Center
Mon 09:50:32 AM 32.3908 -86.3486 174° South 443 510 32,600 -939 Descending Atlanta Center
Mon 09:52:31 AM 32.1394 -86.2978 170° South 435 501 30,800 -1,274 Descending Jacksonville Center
Mon 09:53:31 AM 32.0236 -86.2617 165° South 435 501 28,800 -2,000 Descending Jacksonville Center
Mon 09:54:31 AM 31.9158 -86.2308 166° South 428 493 26,800 -2,200 Descending Jacksonville Center
Mon 09:55:31 AM 31.8061 -86.2025 168° South 415 478 24,400 -2,850 Descending Jacksonville Center
Mon 09:56:31 AM 31.6942 -86.1692 166° South 410 472 21,100 -2,350 Descending Jacksonville Center
Mon 09:57:31 AM 31.5842 -86.1433 169° South 410 472 19,700 -1,346 Descending Jacksonville Center
Mon 09:58:18 AM 31.5117 -86.1214 166° South 373 429 18,700 -1,500 Descending Jacksonville Center
Mon 09:59:31 AM 31.3850 -86.0878 167° South 385 443 16,700 -1,308 Descending Jacksonville Center
Mon 10:00:31 AM 31.2856 -86.0625 168° South 374 430 15,800 -984 Descending Jacksonville Center
Mon 10:01:33 AM 31.1839 -86.0322 166° South 381 438 14,700 -1,550 Descending Jacksonville Center
Mon 10:02:31 AM 31.0886 -86.0097 169° South 369 425 12,700 -1,881 Descending Jacksonville Center
Mon 10:03:31 AM 31.0036 -85.9828 165° South 369 425 11,000 -1,200 Descending Jacksonville Center
Mon 10:04:31 AM 30.9144 -85.9581 167° South 350 403 10,300 -1,100 Descending Jacksonville Center
Mon 10:05:31 AM 30.8333 -85.9433 171° South 321 369 8,800 -1,600 Descending Jacksonville Center
Mon 10:06:31 AM 30.7522 -85.9261 170° South 308 354 7,100 -1,600 Descending Jacksonville Center
Mon 10:07:31 AM 30.6756 -85.9092 169° South 296 341 5,600 -1,500 Descending Jacksonville Center
Mon 10:08:31 AM 30.6050 -85.8925 169° South 276 318 4,100 -1,250 Descending Jacksonville Center
Mon 10:09:31 AM 30.5364 -85.8736 167° South 266 306 3,100 -900 Descending Jacksonville Center
Mon 10:10:31 AM 30.4808 -85.8478 158° South 240 276 2,300 -750 Descending Jacksonville Center
Mon 10:11:31 AM 30.4311 -85.8269 160° South 214 246 1,600 -800 Descending Jacksonville Center
Mon 10:12:31 AM 30.3939 -85.8114 160° South 179 206 700 -700 Descending Jacksonville Center
Mon 10:13:31 AM 30.3464 -85.7906 159° South 162 186 200 -500 Descending Jacksonville Center
Mon 10:15:00 AM 30.3500 -85.7833 161° South  Level FlightAware Approximate

Login

Don't have an account? Register now (free) for customized features, flight alerts, and more!